DLH431 EGLL-EDDF
Flight info
| Callsign | DLH431 |
|---|---|
| Flight time | 1h 20m |
| Altitude | 35000 |
| Route | BPK6J BPK Q295 MATCH DCT REDFA DCT TACHA DCT NOLRU DCT DIXAT DIXAT1A |
| Aircraft | B78X/H-SDE1E2E3FGHIJ2J3J4J5M1RWXY/LB1D1 |
Departure
| Time | 2026-05-07 15:12 |
|---|---|
| Airport | London Heathrow Airport (EGLL) |
Arrival
| Time | 2026-05-07 16:32 |
|---|---|
| Airport | Frankfurt Main Airport (EDDF) |
| Time | Latitude | Longitude | Altitude | Speed | Heading |
|---|---|---|---|---|---|
| 2026-05-07 14:43 | 51.47078 | -0.46596 | 94 ft | 0 kts | 54° |
| 2026-05-07 14:56 | 51.47077 | -0.46600 | 93 ft | 2 kts | 54° |
| 2026-05-07 14:57 | 51.47064 | -0.46629 | 92 ft | 5 kts | 54° |
| 2026-05-07 14:57 | 51.47052 | -0.46655 | 93 ft | 5 kts | 58° |
| 2026-05-07 14:57 | 51.47044 | -0.46680 | 93 ft | 5 kts | 89° |
| 2026-05-07 14:57 | 51.47045 | -0.46706 | 92 ft | 5 kts | 121° |
| 2026-05-07 14:58 | 51.47057 | -0.46733 | 92 ft | 5 kts | 138° |
| 2026-05-07 14:58 | 51.47072 | -0.46754 | 92 ft | 3 kts | 144° |
| 2026-05-07 14:58 | 51.47073 | -0.46754 | 92 ft | 7 kts | 144° |
| 2026-05-07 15:01 | 51.47070 | -0.46751 | 92 ft | 2 kts | 144° |
| 2026-05-07 15:01 | 51.47050 | -0.46728 | 92 ft | 6 kts | 143° |
| 2026-05-07 15:01 | 51.46992 | -0.46659 | 95 ft | 12 kts | 144° |
| 2026-05-07 15:02 | 51.46912 | -0.46575 | 95 ft | 15 kts | 146° |
| 2026-05-07 15:02 | 51.46821 | -0.46476 | 95 ft | 17 kts | 146° |
| 2026-05-07 15:02 | 51.46711 | -0.46420 | 94 ft | 16 kts | 178° |
| 2026-05-07 15:02 | 51.46659 | -0.46479 | 96 ft | 6 kts | 262° |
| 2026-05-07 15:03 | 51.46659 | -0.46616 | 97 ft | 15 kts | 270° |
| 2026-05-07 15:03 | 51.46659 | -0.46794 | 97 ft | 17 kts | 269° |
| 2026-05-07 15:03 | 51.46658 | -0.47008 | 95 ft | 21 kts | 270° |
| 2026-05-07 15:03 | 51.46657 | -0.47257 | 92 ft | 24 kts | 269° |
| 2026-05-07 15:04 | 51.46657 | -0.47538 | 91 ft | 26 kts | 270° |
| 2026-05-07 15:04 | 51.46654 | -0.47831 | 91 ft | 26 kts | 268° |
| 2026-05-07 15:04 | 51.46654 | -0.47995 | 91 ft | 0 kts | 269° |
| 2026-05-07 15:05 | 51.46654 | -0.48033 | 91 ft | 8 kts | 270° |
| 2026-05-07 15:05 | 51.46653 | -0.48154 | 92 ft | 14 kts | 269° |
| 2026-05-07 15:05 | 51.46654 | -0.48325 | 93 ft | 13 kts | 269° |
| 2026-05-07 15:06 | 51.46652 | -0.48475 | 94 ft | 15 kts | 268° |
| 2026-05-07 15:06 | 51.46651 | -0.48599 | 94 ft | 6 kts | 271° |
| 2026-05-07 15:06 | 51.46652 | -0.48677 | 92 ft | 9 kts | 271° |
| 2026-05-07 15:06 | 51.46637 | -0.48742 | 95 ft | 4 kts | 230° |
| 2026-05-07 15:07 | 51.46607 | -0.48766 | 94 ft | 0 kts | 196° |
| 2026-05-07 15:09 | 51.46606 | -0.48766 | 91 ft | 0 kts | 196° |
| 2026-05-07 15:09 | 51.46575 | -0.48780 | 93 ft | 8 kts | 195° |
| 2026-05-07 15:09 | 51.46512 | -0.48778 | 95 ft | 9 kts | 160° |
| 2026-05-07 15:10 | 51.46480 | -0.48709 | 96 ft | 8 kts | 108° |
| 2026-05-07 15:10 | 51.46478 | -0.48622 | 95 ft | 0 kts | 89° |
| 2026-05-07 15:11 | 51.46478 | -0.48621 | 95 ft | 0 kts | 89° |
| 2026-05-07 15:12 | 51.46480 | -0.48378 | 93 ft | 67 kts | 90° |
| 2026-05-07 15:12 | 51.46483 | -0.47032 | 152 ft | 163 kts | 91° |
| 2026-05-07 15:12 | 51.46463 | -0.44977 | 922 ft | 199 kts | 92° |
| 2026-05-07 15:12 | 51.46498 | -0.42694 | 2012 ft | 218 kts | 89° |
| 2026-05-07 15:13 | 51.46898 | -0.40242 | 2897 ft | 241 kts | 58° |
| 2026-05-07 15:13 | 51.47963 | -0.38169 | 4025 ft | 247 kts | 47° |
| 2026-05-07 15:13 | 51.49249 | -0.35999 | 4554 ft | 293 kts | 47° |
| 2026-05-07 15:13 | 51.50608 | -0.33494 | 5766 ft | 298 kts | 50° |
| 2026-05-07 15:14 | 51.51881 | -0.30970 | 5983 ft | 286 kts | 55° |
| 2026-05-07 15:14 | 51.52671 | -0.28123 | 5919 ft | 285 kts | 73° |
| 2026-05-07 15:14 | 51.53325 | -0.25078 | 6452 ft | 286 kts | 71° |
| 2026-05-07 15:14 | 51.53979 | -0.22109 | 7960 ft | 278 kts | 71° |
| 2026-05-07 15:15 | 51.54852 | -0.19323 | 9541 ft | 285 kts | 50° |
| 2026-05-07 15:15 | 51.56447 | -0.17340 | 10795 ft | 302 kts | 23° |
| 2026-05-07 15:15 | 51.58573 | -0.16657 | 11749 ft | 324 kts | 4° |
| 2026-05-07 15:15 | 51.60872 | -0.16088 | 12597 ft | 346 kts | 10° |
| 2026-05-07 15:16 | 51.63330 | -0.15615 | 13392 ft | 369 kts | 6° |
| 2026-05-07 15:16 | 51.65944 | -0.15007 | 14286 ft | 384 kts | 14° |
| 2026-05-07 15:16 | 51.68526 | -0.13723 | 15358 ft | 391 kts | 18° |
| 2026-05-07 15:16 | 51.71098 | -0.12195 | 16427 ft | 398 kts | 27° |
| 2026-05-07 15:17 | 51.73137 | -0.09831 | 17378 ft | 405 kts | 44° |
| 2026-05-07 15:17 | 51.74895 | -0.06030 | 18464 ft | 411 kts | 63° |
| 2026-05-07 15:17 | 51.75829 | -0.01635 | 19348 ft | 416 kts | 79° |
| 2026-05-07 15:17 | 51.76246 | 0.03022 | 20208 ft | 422 kts | 85° |
| 2026-05-07 15:18 | 51.76508 | 0.07777 | 21093 ft | 428 kts | 85° |
| 2026-05-07 15:18 | 51.76854 | 0.12570 | 21919 ft | 433 kts | 83° |
| 2026-05-07 15:18 | 51.77315 | 0.17424 | 22736 ft | 439 kts | 82° |
| 2026-05-07 15:18 | 51.77749 | 0.22320 | 23506 ft | 444 kts | 83° |
| 2026-05-07 15:19 | 51.78293 | 0.27239 | 24142 ft | 449 kts | 76° |
| 2026-05-07 15:19 | 51.79056 | 0.32165 | 24766 ft | 453 kts | 76° |
| 2026-05-07 15:19 | 51.79846 | 0.37120 | 25435 ft | 455 kts | 76° |
| 2026-05-07 15:19 | 51.80643 | 0.42033 | 26389 ft | 451 kts | 76° |
| 2026-05-07 15:20 | 51.81412 | 0.46860 | 27294 ft | 447 kts | 76° |
| 2026-05-07 15:20 | 51.82169 | 0.51696 | 28164 ft | 445 kts | 76° |
| 2026-05-07 15:20 | 51.82932 | 0.56548 | 29064 ft | 443 kts | 76° |
| 2026-05-07 15:20 | 51.83690 | 0.61347 | 29958 ft | 440 kts | 76° |
| 2026-05-07 15:21 | 51.84444 | 0.66145 | 30721 ft | 438 kts | 77° |
| 2026-05-07 15:21 | 51.85188 | 0.70911 | 31442 ft | 437 kts | 77° |
| 2026-05-07 15:21 | 51.85929 | 0.75677 | 32170 ft | 435 kts | 77° |
| 2026-05-07 15:21 | 51.86665 | 0.80406 | 32903 ft | 434 kts | 77° |
| 2026-05-07 15:22 | 51.87400 | 0.85144 | 33633 ft | 433 kts | 77° |
| 2026-05-07 15:22 | 51.88129 | 0.89860 | 34314 ft | 432 kts | 77° |
| 2026-05-07 15:22 | 51.88856 | 0.94581 | 34842 ft | 433 kts | 77° |
| 2026-05-07 15:22 | 51.89588 | 0.99345 | 35072 ft | 439 kts | 77° |
| 2026-05-07 15:23 | 51.91041 | 1.08839 | 35072 ft | 434 kts | 77° |
| 2026-05-07 15:23 | 51.92483 | 1.18329 | 35066 ft | 433 kts | 77° |
| 2026-05-07 15:24 | 51.93916 | 1.27805 | 35069 ft | 433 kts | 77° |
| 2026-05-07 15:24 | 51.95339 | 1.37278 | 35069 ft | 432 kts | 77° |
| 2026-05-07 15:25 | 51.96753 | 1.46743 | 35077 ft | 432 kts | 77° |
| 2026-05-07 15:25 | 51.98158 | 1.56207 | 35078 ft | 431 kts | 77° |
| 2026-05-07 15:26 | 51.99554 | 1.65664 | 35076 ft | 431 kts | 77° |
| 2026-05-07 15:26 | 52.00944 | 1.75143 | 35078 ft | 431 kts | 77° |
| 2026-05-07 15:27 | 52.02320 | 1.84580 | 35079 ft | 431 kts | 77° |
| 2026-05-07 15:27 | 52.03696 | 1.94076 | 35081 ft | 431 kts | 77° |
| 2026-05-07 15:28 | 52.05060 | 2.03545 | 35083 ft | 431 kts | 78° |
| 2026-05-07 15:28 | 52.06417 | 2.13031 | 35080 ft | 431 kts | 78° |
| 2026-05-07 15:29 | 52.07768 | 2.22524 | 35084 ft | 431 kts | 78° |
| 2026-05-07 15:29 | 52.09108 | 2.32005 | 35085 ft | 431 kts | 78° |
| 2026-05-07 15:30 | 52.10408 | 2.41479 | 35081 ft | 430 kts | 83° |
| 2026-05-07 15:30 | 52.10452 | 2.46298 | 35122 ft | 429 kts | 99° |
| 2026-05-07 15:30 | 52.09820 | 2.51046 | 35102 ft | 430 kts | 107° |
| 2026-05-07 15:31 | 52.08089 | 2.60316 | 35102 ft | 429 kts | 105° |
| 2026-05-07 15:31 | 52.06850 | 2.69806 | 35105 ft | 430 kts | 103° |
| 2026-05-07 15:32 | 52.05434 | 2.79223 | 35101 ft | 430 kts | 105° |
| 2026-05-07 15:32 | 52.04071 | 2.88689 | 35104 ft | 430 kts | 104° |
| 2026-05-07 15:33 | 52.02682 | 2.98130 | 35095 ft | 431 kts | 104° |
| 2026-05-07 15:33 | 52.01283 | 3.07606 | 35099 ft | 431 kts | 104° |
| 2026-05-07 15:34 | 51.99889 | 3.16998 | 35098 ft | 431 kts | 105° |
| 2026-05-07 15:34 | 51.98465 | 3.26526 | 35101 ft | 432 kts | 105° |
| 2026-05-07 15:35 | 51.97046 | 3.35973 | 35101 ft | 432 kts | 105° |
| 2026-05-07 15:35 | 51.95615 | 3.45434 | 35106 ft | 432 kts | 105° |
| 2026-05-07 15:36 | 51.94183 | 3.54849 | 35097 ft | 432 kts | 105° |
| 2026-05-07 15:36 | 51.92971 | 3.62774 | 35099 ft | 432 kts | 105° |
| 2026-05-07 15:37 | 51.91286 | 3.73731 | 35091 ft | 432 kts | 105° |
| 2026-05-07 15:37 | 51.89821 | 3.83192 | 35087 ft | 433 kts | 105° |
| 2026-05-07 15:38 | 51.88351 | 3.92634 | 35084 ft | 433 kts | 105° |
| 2026-05-07 15:38 | 51.87113 | 4.00545 | 35075 ft | 432 kts | 105° |
| 2026-05-07 15:39 | 51.85630 | 4.09965 | 35072 ft | 432 kts | 105° |
| 2026-05-07 15:39 | 51.84140 | 4.19386 | 35069 ft | 432 kts | 105° |
| 2026-05-07 15:40 | 51.82642 | 4.28798 | 35066 ft | 433 kts | 105° |
| 2026-05-07 15:40 | 51.81134 | 4.38214 | 35067 ft | 433 kts | 105° |
| 2026-05-07 15:41 | 51.79619 | 4.47629 | 35066 ft | 433 kts | 105° |
| 2026-05-07 15:41 | 51.78094 | 4.57048 | 35063 ft | 433 kts | 106° |
| 2026-05-07 15:42 | 51.76562 | 4.66461 | 35062 ft | 434 kts | 106° |
| 2026-05-07 15:42 | 51.75024 | 4.75854 | 35063 ft | 433 kts | 106° |
| 2026-05-07 15:43 | 51.73479 | 4.85242 | 35057 ft | 433 kts | 106° |
| 2026-05-07 15:43 | 51.71926 | 4.94625 | 35059 ft | 433 kts | 106° |
| 2026-05-07 15:44 | 51.70370 | 5.03974 | 35059 ft | 432 kts | 106° |
| 2026-05-07 15:44 | 51.68803 | 5.13337 | 35055 ft | 432 kts | 106° |
| 2026-05-07 15:45 | 51.67238 | 5.22640 | 35051 ft | 432 kts | 106° |
| 2026-05-07 15:45 | 51.65647 | 5.32046 | 35047 ft | 432 kts | 106° |
| 2026-05-07 15:46 | 51.63272 | 5.45993 | 35043 ft | 432 kts | 106° |
| 2026-05-07 15:47 | 51.61673 | 5.55319 | 35043 ft | 432 kts | 106° |
| 2026-05-07 15:47 | 51.60069 | 5.64626 | 35043 ft | 433 kts | 107° |
| 2026-05-07 15:48 | 51.58451 | 5.73967 | 35038 ft | 433 kts | 107° |
| 2026-05-07 15:48 | 51.56830 | 5.83271 | 35037 ft | 433 kts | 107° |
| 2026-05-07 15:49 | 51.55197 | 5.92600 | 35052 ft | 433 kts | 107° |
| 2026-05-07 15:49 | 51.53654 | 6.01365 | 35053 ft | 433 kts | 107° |
| 2026-05-07 15:50 | 51.52012 | 6.10654 | 35051 ft | 433 kts | 107° |
| 2026-05-07 15:50 | 51.50354 | 6.19973 | 35051 ft | 433 kts | 107° |
| 2026-05-07 15:51 | 51.48234 | 6.28986 | 35054 ft | 433 kts | 112° |
| 2026-05-07 15:51 | 51.46053 | 6.37965 | 35053 ft | 433 kts | 112° |
| 2026-05-07 15:52 | 51.43830 | 6.46956 | 35053 ft | 433 kts | 112° |
| 2026-05-07 15:52 | 51.41621 | 6.55917 | 35054 ft | 433 kts | 112° |
| 2026-05-07 15:53 | 51.39398 | 6.64863 | 35053 ft | 432 kts | 112° |
| 2026-05-07 15:53 | 51.37164 | 6.73835 | 34700 ft | 436 kts | 112° |
| 2026-05-07 15:53 | 51.36036 | 6.78348 | 34217 ft | 436 kts | 112° |
| 2026-05-07 15:54 | 51.34912 | 6.82837 | 33671 ft | 434 kts | 112° |
| 2026-05-07 15:54 | 51.33801 | 6.87269 | 33190 ft | 429 kts | 112° |
| 2026-05-07 15:54 | 51.32688 | 6.91695 | 32693 ft | 427 kts | 112° |
| 2026-05-07 15:54 | 51.31574 | 6.96115 | 32183 ft | 430 kts | 112° |
| 2026-05-07 15:55 | 51.30448 | 7.00574 | 31683 ft | 432 kts | 112° |
| 2026-05-07 15:55 | 51.29327 | 7.05009 | 31157 ft | 432 kts | 112° |
| 2026-05-07 15:55 | 51.28176 | 7.09429 | 30630 ft | 432 kts | 117° |
| 2026-05-07 15:55 | 51.26540 | 7.13421 | 30097 ft | 432 kts | 132° |
| 2026-05-07 15:56 | 51.24319 | 7.16690 | 29501 ft | 431 kts | 146° |
| 2026-05-07 15:56 | 51.21720 | 7.19061 | 28924 ft | 431 kts | 154° |
| 2026-05-07 15:56 | 51.19039 | 7.21227 | 28329 ft | 432 kts | 154° |
| 2026-05-07 15:56 | 51.16344 | 7.23348 | 27734 ft | 433 kts | 155° |
| 2026-05-07 15:57 | 51.13633 | 7.25471 | 27123 ft | 434 kts | 155° |
| 2026-05-07 15:57 | 51.10948 | 7.27656 | 26483 ft | 435 kts | 152° |
| 2026-05-07 15:57 | 51.08269 | 7.29919 | 25832 ft | 436 kts | 154° |
| 2026-05-07 15:57 | 51.05557 | 7.32076 | 25151 ft | 437 kts | 155° |
| 2026-05-07 15:58 | 51.02846 | 7.34270 | 24410 ft | 438 kts | 154° |
| 2026-05-07 15:58 | 51.00155 | 7.36523 | 23648 ft | 437 kts | 154° |
| 2026-05-07 15:58 | 50.97459 | 7.38766 | 22842 ft | 439 kts | 154° |
| 2026-05-07 15:58 | 50.94745 | 7.40982 | 22092 ft | 437 kts | 154° |
| 2026-05-07 15:59 | 50.92057 | 7.43172 | 21318 ft | 432 kts | 154° |
| 2026-05-07 15:59 | 50.89402 | 7.45353 | 20573 ft | 428 kts | 154° |
| 2026-05-07 15:59 | 50.86772 | 7.47514 | 19830 ft | 424 kts | 154° |
| 2026-05-07 15:59 | 50.84173 | 7.49636 | 19322 ft | 418 kts | 154° |
| 2026-05-07 16:00 | 50.81577 | 7.51750 | 18916 ft | 419 kts | 154° |
| 2026-05-07 16:00 | 50.79001 | 7.53851 | 18516 ft | 416 kts | 154° |
| 2026-05-07 16:00 | 50.76435 | 7.55943 | 18093 ft | 414 kts | 154° |
| 2026-05-07 16:00 | 50.73880 | 7.58021 | 17686 ft | 411 kts | 154° |
| 2026-05-07 16:01 | 50.71346 | 7.60077 | 17292 ft | 409 kts | 154° |
| 2026-05-07 16:01 | 50.68821 | 7.62125 | 16911 ft | 407 kts | 154° |
| 2026-05-07 16:01 | 50.66306 | 7.64164 | 16528 ft | 406 kts | 154° |
| 2026-05-07 16:01 | 50.63795 | 7.66197 | 16145 ft | 404 kts | 154° |
| 2026-05-07 16:02 | 50.61304 | 7.68209 | 15759 ft | 403 kts | 154° |
| 2026-05-07 16:02 | 50.58816 | 7.70216 | 15385 ft | 401 kts | 154° |
| 2026-05-07 16:02 | 50.56340 | 7.72211 | 15005 ft | 399 kts | 154° |
| 2026-05-07 16:02 | 50.53914 | 7.74167 | 14611 ft | 375 kts | 154° |
| 2026-05-07 16:03 | 50.51681 | 7.75968 | 14283 ft | 355 kts | 154° |
| 2026-05-07 16:03 | 50.49542 | 7.77681 | 13960 ft | 350 kts | 154° |
| 2026-05-07 16:03 | 50.47402 | 7.79532 | 13601 ft | 347 kts | 147° |
| 2026-05-07 16:03 | 50.45318 | 7.81346 | 13283 ft | 343 kts | 164° |
| 2026-05-07 16:04 | 50.42980 | 7.81919 | 12960 ft | 338 kts | 178° |
| 2026-05-07 16:04 | 50.40610 | 7.81983 | 12685 ft | 336 kts | 182° |
| 2026-05-07 16:04 | 50.38306 | 7.81912 | 12442 ft | 335 kts | 183° |
| 2026-05-07 16:04 | 50.35979 | 7.81803 | 12182 ft | 334 kts | 183° |
| 2026-05-07 16:05 | 50.33636 | 7.81685 | 11935 ft | 333 kts | 183° |
| 2026-05-07 16:05 | 50.31324 | 7.81567 | 11695 ft | 332 kts | 183° |
| 2026-05-07 16:05 | 50.29049 | 7.81666 | 11455 ft | 333 kts | 169° |
| 2026-05-07 16:05 | 50.26977 | 7.83325 | 11194 ft | 335 kts | 139° |
| 2026-05-07 16:06 | 50.25518 | 7.86079 | 11035 ft | 334 kts | 117° |
| 2026-05-07 16:06 | 50.24941 | 7.89568 | 11036 ft | 336 kts | 94° |
| 2026-05-07 16:06 | 50.24971 | 7.93113 | 11034 ft | 314 kts | 86° |
| 2026-05-07 16:06 | 50.25153 | 7.96430 | 11021 ft | 304 kts | 84° |
| 2026-05-07 16:07 | 50.25369 | 7.99705 | 11029 ft | 301 kts | 83° |
| 2026-05-07 16:07 | 50.25590 | 8.02949 | 11023 ft | 301 kts | 83° |
| 2026-05-07 16:07 | 50.25815 | 8.06206 | 11032 ft | 300 kts | 83° |
| 2026-05-07 16:07 | 50.26039 | 8.09450 | 11029 ft | 301 kts | 83° |
| 2026-05-07 16:08 | 50.26263 | 8.12697 | 11026 ft | 301 kts | 83° |
| 2026-05-07 16:08 | 50.26488 | 8.15946 | 11028 ft | 301 kts | 83° |
| 2026-05-07 16:08 | 50.26712 | 8.19201 | 11028 ft | 301 kts | 83° |
| 2026-05-07 16:08 | 50.26927 | 8.22332 | 11038 ft | 301 kts | 83° |
| 2026-05-07 16:09 | 50.27143 | 8.25481 | 11038 ft | 301 kts | 83° |
| 2026-05-07 16:09 | 50.27364 | 8.28722 | 11040 ft | 301 kts | 83° |
| 2026-05-07 16:09 | 50.27585 | 8.31980 | 11035 ft | 301 kts | 83° |
| 2026-05-07 16:09 | 50.27803 | 8.35210 | 11037 ft | 301 kts | 83° |
| 2026-05-07 16:10 | 50.28023 | 8.38462 | 11042 ft | 301 kts | 83° |
| 2026-05-07 16:10 | 50.28244 | 8.41738 | 11032 ft | 301 kts | 83° |
| 2026-05-07 16:10 | 50.28462 | 8.44995 | 11031 ft | 301 kts | 83° |
| 2026-05-07 16:10 | 50.28678 | 8.48222 | 11028 ft | 292 kts | 83° |
| 2026-05-07 16:11 | 50.28879 | 8.51253 | 11017 ft | 272 kts | 83° |
| 2026-05-07 16:11 | 50.29071 | 8.54187 | 11015 ft | 268 kts | 83° |
| 2026-05-07 16:11 | 50.29259 | 8.57071 | 11022 ft | 266 kts | 83° |
| 2026-05-07 16:11 | 50.29446 | 8.59942 | 10906 ft | 263 kts | 83° |
| 2026-05-07 16:12 | 50.29629 | 8.62743 | 10497 ft | 262 kts | 83° |
| 2026-05-07 16:12 | 50.29814 | 8.65597 | 10089 ft | 261 kts | 83° |
| 2026-05-07 16:12 | 50.29995 | 8.68385 | 10025 ft | 263 kts | 83° |
| 2026-05-07 16:12 | 50.30178 | 8.71218 | 10025 ft | 262 kts | 83° |
| 2026-05-07 16:13 | 50.30360 | 8.74052 | 10027 ft | 262 kts | 83° |
| 2026-05-07 16:13 | 50.30544 | 8.76935 | 10024 ft | 262 kts | 83° |
| 2026-05-07 16:13 | 50.30725 | 8.79766 | 10021 ft | 262 kts | 83° |
| 2026-05-07 16:13 | 50.30904 | 8.82554 | 10016 ft | 262 kts | 83° |
| 2026-05-07 16:14 | 50.31088 | 8.85430 | 10010 ft | 262 kts | 83° |
| 2026-05-07 16:14 | 50.31265 | 8.88230 | 10012 ft | 262 kts | 83° |
| 2026-05-07 16:14 | 50.31445 | 8.91069 | 10013 ft | 261 kts | 83° |
| 2026-05-07 16:14 | 50.31620 | 8.93846 | 9718 ft | 257 kts | 83° |
| 2026-05-07 16:15 | 50.31797 | 8.96651 | 9247 ft | 257 kts | 83° |
| 2026-05-07 16:15 | 50.31976 | 8.99451 | 8790 ft | 256 kts | 83° |
| 2026-05-07 16:15 | 50.32150 | 9.02179 | 8369 ft | 255 kts | 83° |
| 2026-05-07 16:15 | 50.32325 | 9.04937 | 7938 ft | 254 kts | 83° |
| 2026-05-07 16:16 | 50.32497 | 9.07687 | 7546 ft | 253 kts | 83° |
| 2026-05-07 16:16 | 50.32670 | 9.10416 | 7142 ft | 251 kts | 83° |
| 2026-05-07 16:16 | 50.32854 | 9.13127 | 6771 ft | 250 kts | 83° |
| 2026-05-07 16:16 | 50.33031 | 9.15839 | 6402 ft | 249 kts | 83° |
| 2026-05-07 16:17 | 50.33202 | 9.18528 | 6004 ft | 248 kts | 83° |
| 2026-05-07 16:17 | 50.33334 | 9.21203 | 5617 ft | 246 kts | 89° |
| 2026-05-07 16:17 | 50.33160 | 9.23864 | 5247 ft | 245 kts | 102° |
| 2026-05-07 16:17 | 50.32651 | 9.26386 | 5029 ft | 242 kts | 114° |
| 2026-05-07 16:18 | 50.31816 | 9.28678 | 5023 ft | 244 kts | 126° |
| 2026-05-07 16:18 | 50.30696 | 9.30660 | 5020 ft | 243 kts | 138° |
| 2026-05-07 16:18 | 50.29345 | 9.32242 | 5017 ft | 242 kts | 150° |
| 2026-05-07 16:18 | 50.27824 | 9.33350 | 5018 ft | 241 kts | 163° |
| 2026-05-07 16:19 | 50.26206 | 9.33937 | 5032 ft | 236 kts | 175° |
| 2026-05-07 16:19 | 50.24554 | 9.33991 | 5021 ft | 234 kts | 187° |
| 2026-05-07 16:19 | 50.22954 | 9.33516 | 5028 ft | 234 kts | 198° |
| 2026-05-07 16:19 | 50.21468 | 9.32524 | 5023 ft | 234 kts | 213° |
| 2026-05-07 16:20 | 50.20490 | 9.30631 | 4996 ft | 226 kts | 252° |
| 2026-05-07 16:20 | 50.20463 | 9.28199 | 5004 ft | 223 kts | 279° |
| 2026-05-07 16:20 | 50.20800 | 9.25818 | 5021 ft | 225 kts | 283° |
| 2026-05-07 16:20 | 50.21168 | 9.23464 | 5031 ft | 214 kts | 283° |
| 2026-05-07 16:21 | 50.21328 | 9.21311 | 4889 ft | 192 kts | 260° |
| 2026-05-07 16:21 | 50.20795 | 9.19530 | 4944 ft | 177 kts | 243° |
| 2026-05-07 16:21 | 50.20230 | 9.17862 | 4919 ft | 164 kts | 245° |
| 2026-05-07 16:21 | 50.19749 | 9.16296 | 4942 ft | 161 kts | 246° |
| 2026-05-07 16:22 | 50.19283 | 9.14740 | 4918 ft | 159 kts | 247° |
| 2026-05-07 16:22 | 50.18991 | 9.13672 | 4922 ft | 165 kts | 249° |
| 2026-05-07 16:22 | 50.18572 | 9.11946 | 4936 ft | 169 kts | 251° |
| 2026-05-07 16:22 | 50.18154 | 9.10192 | 4934 ft | 172 kts | 251° |
| 2026-05-07 16:23 | 50.17598 | 9.07863 | 4937 ft | 177 kts | 251° |
| 2026-05-07 16:23 | 50.17287 | 9.06554 | 4943 ft | 200 kts | 251° |
| 2026-05-07 16:23 | 50.16803 | 9.04519 | 4943 ft | 206 kts | 251° |
| 2026-05-07 16:23 | 50.16328 | 9.02526 | 4952 ft | 206 kts | 250° |
| 2026-05-07 16:24 | 50.15827 | 9.00427 | 4953 ft | 204 kts | 250° |
| 2026-05-07 16:24 | 50.15330 | 8.98345 | 4925 ft | 203 kts | 250° |
| 2026-05-07 16:24 | 50.14846 | 8.96322 | 4939 ft | 187 kts | 250° |
| 2026-05-07 16:24 | 50.14427 | 8.94578 | 4939 ft | 156 kts | 251° |
| 2026-05-07 16:25 | 50.14059 | 8.93039 | 4944 ft | 149 kts | 251° |
| 2026-05-07 16:25 | 50.13704 | 8.91555 | 4946 ft | 149 kts | 251° |
| 2026-05-07 16:25 | 50.13344 | 8.90049 | 4957 ft | 145 kts | 251° |
| 2026-05-07 16:25 | 50.12988 | 8.88561 | 4962 ft | 145 kts | 251° |
| 2026-05-07 16:26 | 50.12633 | 8.87078 | 4959 ft | 146 kts | 251° |
| 2026-05-07 16:26 | 50.12279 | 8.85594 | 4959 ft | 146 kts | 251° |
| 2026-05-07 16:26 | 50.11922 | 8.84100 | 4867 ft | 148 kts | 251° |
| 2026-05-07 16:26 | 50.11570 | 8.82627 | 4681 ft | 148 kts | 251° |
| 2026-05-07 16:27 | 50.11216 | 8.81146 | 4466 ft | 145 kts | 251° |
| 2026-05-07 16:27 | 50.10863 | 8.79668 | 4255 ft | 145 kts | 251° |
| 2026-05-07 16:27 | 50.10509 | 8.78187 | 4049 ft | 147 kts | 251° |
| 2026-05-07 16:27 | 50.10157 | 8.76714 | 3843 ft | 144 kts | 251° |
| 2026-05-07 16:28 | 50.09802 | 8.75231 | 3635 ft | 145 kts | 251° |
| 2026-05-07 16:28 | 50.09453 | 8.73773 | 3433 ft | 145 kts | 251° |
| 2026-05-07 16:28 | 50.09097 | 8.72290 | 3231 ft | 147 kts | 252° |
| 2026-05-07 16:28 | 50.08741 | 8.70804 | 3021 ft | 144 kts | 252° |
| 2026-05-07 16:29 | 50.08387 | 8.69322 | 2823 ft | 146 kts | 252° |
| 2026-05-07 16:29 | 50.08032 | 8.67840 | 2602 ft | 150 kts | 252° |
| 2026-05-07 16:29 | 50.07765 | 8.66721 | 2443 ft | 148 kts | 252° |
| 2026-05-07 16:29 | 50.07413 | 8.65246 | 2240 ft | 146 kts | 253° |
| 2026-05-07 16:30 | 50.07062 | 8.63744 | 2027 ft | 147 kts | 253° |
| 2026-05-07 16:30 | 50.06704 | 8.62242 | 1807 ft | 145 kts | 253° |
| 2026-05-07 16:30 | 50.06345 | 8.60752 | 1602 ft | 147 kts | 253° |
| 2026-05-07 16:30 | 50.06012 | 8.59343 | 1387 ft | 146 kts | 253° |
| 2026-05-07 16:31 | 50.05777 | 8.58360 | 1228 ft | 138 kts | 253° |
| 2026-05-07 16:31 | 50.05429 | 8.56958 | 1108 ft | 143 kts | 251° |
| 2026-05-07 16:31 | 50.05097 | 8.55508 | 774 ft | 142 kts | 251° |
| 2026-05-07 16:31 | 50.04753 | 8.54071 | 576 ft | 140 kts | 249° |
| 2026-05-07 16:32 | 50.04413 | 8.52637 | 396 ft | 138 kts | 249° |
| 2026-05-07 16:32 | 50.04154 | 8.51566 | 389 ft | 67 kts | 249° |
| 2026-05-07 16:32 | 50.04063 | 8.51214 | 383 ft | 15 kts | 244° |
| 2026-05-07 16:32 | 50.03976 | 8.51008 | 389 ft | 32 kts | 234° |
| 2026-05-07 16:33 | 50.03884 | 8.50881 | 388 ft | 0 kts | 212° |
| 2026-05-07 16:33 | 50.03862 | 8.50858 | 392 ft | 11 kts | 212° |
| 2026-05-07 16:33 | 50.03798 | 8.50860 | 388 ft | 9 kts | 142° |
| 2026-05-07 16:34 | 50.03797 | 8.50991 | 391 ft | 19 kts | 71° |
| 2026-05-07 16:34 | 50.03858 | 8.51251 | 390 ft | 32 kts | 70° |
| 2026-05-07 16:34 | 50.03943 | 8.51611 | 384 ft | 37 kts | 69° |
| 2026-05-07 16:34 | 50.04034 | 8.51990 | 390 ft | 38 kts | 69° |
| 2026-05-07 16:35 | 50.04127 | 8.52373 | 387 ft | 38 kts | 69° |
| 2026-05-07 16:35 | 50.04221 | 8.52764 | 392 ft | 39 kts | 69° |
| 2026-05-07 16:35 | 50.04316 | 8.53159 | 388 ft | 39 kts | 69° |
| 2026-05-07 16:35 | 50.04400 | 8.53574 | 392 ft | 39 kts | 84° |
| 2026-05-07 16:36 | 50.04426 | 8.53996 | 383 ft | 40 kts | 84° |
| 2026-05-07 16:36 | 50.04454 | 8.54404 | 383 ft | 31 kts | 86° |
| 2026-05-07 16:36 | 50.04373 | 8.54704 | 394 ft | 31 kts | 136° |
| 2026-05-07 16:36 | 50.04179 | 8.54848 | 393 ft | 32 kts | 160° |
| 2026-05-07 16:37 | 50.03971 | 8.54968 | 389 ft | 26 kts | 159° |
| 2026-05-07 16:37 | 50.03854 | 8.55060 | 394 ft | 13 kts | 123° |
| 2026-05-07 16:37 | 50.03867 | 8.55192 | 395 ft | 14 kts | 71° |
| 2026-05-07 16:37 | 50.03904 | 8.55342 | 393 ft | 16 kts | 69° |
| 2026-05-07 16:38 | 50.03946 | 8.55523 | 391 ft | 19 kts | 69° |
| 2026-05-07 16:38 | 50.03995 | 8.55728 | 389 ft | 22 kts | 70° |
| 2026-05-07 16:38 | 50.04050 | 8.55958 | 388 ft | 24 kts | 69° |
| 2026-05-07 16:38 | 50.04111 | 8.56211 | 397 ft | 26 kts | 70° |
| 2026-05-07 16:39 | 50.04176 | 8.56485 | 394 ft | 28 kts | 69° |
| 2026-05-07 16:39 | 50.04237 | 8.56741 | 392 ft | 20 kts | 69° |
| 2026-05-07 16:39 | 50.04332 | 8.56823 | 392 ft | 16 kts | 13° |
| 2026-05-07 16:39 | 50.04440 | 8.56862 | 391 ft | 17 kts | 28° |
| 2026-05-07 16:40 | 50.04477 | 8.56948 | 399 ft | 14 kts | 72° |
| 2026-05-07 16:40 | 50.04512 | 8.57085 | 397 ft | 15 kts | 70° |
| 2026-05-07 16:40 | 50.04552 | 8.57249 | 399 ft | 18 kts | 69° |
| 2026-05-07 16:40 | 50.04590 | 8.57364 | 397 ft | 4 kts | 39° |
| 2026-05-07 16:41 | 50.04604 | 8.57364 | 397 ft | 1 kts | 356° |
| 2026-05-07 16:41 | 50.04614 | 8.57353 | 393 ft | 2 kts | 327° |
| 2026-05-07 16:41 | 50.04622 | 8.57332 | 394 ft | 3 kts | 297° |
| 2026-05-07 16:41 | 50.04634 | 8.57297 | 391 ft | 2 kts | 297° |
| 2026-05-07 16:42 | 50.04643 | 8.57269 | 390 ft | 3 kts | 298° |
| 2026-05-07 16:42 | 50.04647 | 8.57256 | 396 ft | 0 kts | 298° |